Da Tong Yun — VRJL3 — position and weather

sailwx.info

Track history (hours):
 
Tides and Currents Weather Stations Pressure Air Temp Water Temp Dewpoint Dewpoint Depression Visibility Wind Speed Wind Dir Waves Ship Positions

Da Tong Yun

Last reported at 2018-Jun-11 18:28 UTC. Time now 2018-Jun-25 11:55 UTC.
Position N 01°25' E 103°13'.
Warning: this ship's position is 13 days out of date.

Length 166 m; draft 8.8 m.

Type: Cargo ship. MMSI: 477108600.

Date/timePositionNaut miles runAvg speedWind from/ knotsBaromVisibWave heightAir tempDewpointWater temp
2018-Jun-11 18:28N 01°25' E 103°13'613.7
2018-Jun-11 18:00N 01°21' E 103°18'713.1
2018-Jun-11 17:29N 01°16' E 103°23'612.4
2018-Jun-11 17:00N 01°13' E 103°28'611.9
2018-Jun-11 16:30N 01°12' E 103°34'611.4
2018-Jun-11 16:00N 01°11' E 103°39'511.1
2018-Jun-11 15:30N 01°08' E 103°44'510.7
2018-Jun-11 15:00N 01°11' E 103°49'511.0
2018-Jun-11 14:30N 01°13' E 103°54'612.0
2018-Jun-11 14:00N 01°15' E 103°60'612.5
2018-Jun-11 13:30N 01°16' E 104°06'612.4
2018-Jun-11 13:00N 01°17' E 104°12'613.1
2018-Jun-11 12:30N 01°18' E 104°18'713.1
2018-Jun-11 11:58N 01°22' E 104°24'  
Track history (hours):
 
Tides and Currents Weather Stations Pressure Air Temp Water Temp Dewpoint Dewpoint Depression Visibility Wind Speed Wind Dir Waves Ship Positions

Da Tong Yun

Last reported at 2018-Jun-11 18:28 UTC. Time now 2018-Jun-25 11:55 UTC.
Position N 01°25' E 103°13'.
Warning: this ship's position is 13 days out of date.

Length 166 m; draft 8.8 m.

Type: Cargo ship. MMSI: 477108600.

Date/timePositionNaut miles runAvg speedWind from/ knotsBaromVisibWave heightAir tempDewpointWater temp
2018-Jun-11 18:28N 01°25' E 103°13'613.7
2018-Jun-11 18:00N 01°21' E 103°18'713.1
2018-Jun-11 17:29N 01°16' E 103°23'612.4
2018-Jun-11 17:00N 01°13' E 103°28'611.9
2018-Jun-11 16:30N 01°12' E 103°34'611.4
2018-Jun-11 16:00N 01°11' E 103°39'511.1
2018-Jun-11 15:30N 01°08' E 103°44'510.7
2018-Jun-11 15:00N 01°11' E 103°49'511.0
2018-Jun-11 14:30N 01°13' E 103°54'612.0
2018-Jun-11 14:00N 01°15' E 103°60'612.5
2018-Jun-11 13:30N 01°16' E 104°06'612.4
2018-Jun-11 13:00N 01°17' E 104°12'613.1
2018-Jun-11 12:30N 01°18' E 104°18'713.1
2018-Jun-11 11:58N 01°22' E 104°24'  

Dump ship's entire track history